createdAt,value
2023-02-28T00:00:43.986Z,4.83
2023-02-28T00:03:11.137Z,3.67
2023-02-28T00:05:38.250Z,5.47
2023-02-28T00:08:05.440Z,6.43
2023-02-28T00:10:32.974Z,5.83
2023-02-28T00:13:05.627Z,4.37
2023-02-28T00:15:33.138Z,5.27
2023-02-28T00:18:00.204Z,2.90
2023-02-28T00:20:27.750Z,4.37
2023-02-28T00:22:55.261Z,5.43
2023-02-28T00:25:24.076Z,3.80
2023-02-28T00:27:51.756Z,9.40
2023-02-28T00:30:22.879Z,5.07
2023-02-28T00:32:50.118Z,4.93
2023-02-28T00:35:17.255Z,3.73
2023-02-28T00:37:44.472Z,3.73
2023-02-28T00:40:13.020Z,3.97
2023-02-28T00:42:40.177Z,4.27
2023-02-28T00:45:07.601Z,5.10
2023-02-28T00:47:34.729Z,5.07
2023-02-28T00:50:01.994Z,4.40
2023-02-28T00:52:29.145Z,5.33
2023-02-28T00:54:56.217Z,4.43
2023-02-28T00:57:23.324Z,4.13
2023-02-28T00:59:50.477Z,4.27
2023-02-28T01:02:18.960Z,5.83
2023-02-28T01:04:46.057Z,6.53
2023-02-28T01:07:13.185Z,4.67
2023-02-28T01:09:40.242Z,4.43
2023-02-28T01:12:08.243Z,4.60
2023-02-28T01:14:35.589Z,3.43
2023-02-28T01:17:02.784Z,5.40
2023-02-28T01:19:29.837Z,6.03
2023-02-28T01:21:56.925Z,4.13
2023-02-28T01:24:23.996Z,4.47
2023-02-28T01:26:51.090Z,3.53
2023-02-28T01:29:18.185Z,4.63
2023-02-28T01:31:45.415Z,3.97
2023-02-28T01:34:13.180Z,4.37
2023-02-28T01:36:40.318Z,4.50
2023-02-28T01:39:07.403Z,4.43
2023-02-28T01:41:35.382Z,4.53
2023-02-28T01:44:04.413Z,5.57
2023-02-28T01:46:32.358Z,4.63
2023-02-28T01:49:03.165Z,5.33
2023-02-28T01:51:33.089Z,5.10
2023-02-28T01:54:14.572Z,4.73
2023-02-28T01:56:45.919Z,5.50
2023-02-28T01:59:15.072Z,4.97
2023-02-28T02:01:42.336Z,4.90
2023-02-28T02:04:09.453Z,6.87
2023-02-28T02:06:43.109Z,6.03
2023-02-28T02:09:10.185Z,5.97
2023-02-28T02:11:37.621Z,4.83
2023-02-28T02:14:22.857Z,5.33
2023-02-28T02:16:58.919Z,4.90
2023-02-28T02:19:28.762Z,6.83
2023-02-28T02:22:15.101Z,4.47
2023-02-28T02:24:48.458Z,4.57
2023-02-28T02:27:19.198Z,5.73
2023-02-28T02:29:50.277Z,5.13
2023-02-28T02:32:17.425Z,7.60
2023-02-28T02:34:47.628Z,4.43
2023-02-28T02:37:23.862Z,4.50
2023-02-28T02:40:12.636Z,6.73
2023-02-28T02:42:59.983Z,4.40
2023-02-28T02:45:39.727Z,5.23
2023-02-28T02:48:08.893Z,5.93
2023-02-28T02:50:40.594Z,4.07
2023-02-28T02:53:08.853Z,4.27
2023-02-28T02:55:38.819Z,4.33
2023-02-28T02:58:07.827Z,5.00
2023-02-28T03:00:38.166Z,5.77
2023-02-28T03:03:05.826Z,6.40
2023-02-28T03:05:49.539Z,6.30
2023-02-28T03:08:16.938Z,6.80
2023-02-28T03:10:45.231Z,5.23
2023-02-28T03:13:15.372Z,6.40
2023-02-28T03:15:50.695Z,6.10
2023-02-28T03:18:36.553Z,7.03
2023-02-28T03:21:29.084Z,5.53
2023-02-28T03:24:05.576Z,6.33
2023-02-28T03:26:33.800Z,6.70
2023-02-28T03:29:18.312Z,6.60
2023-02-28T03:32:05.776Z,6.47
2023-02-28T03:34:32.919Z,6.13
2023-02-28T03:37:03.766Z,7.50
2023-02-28T03:39:51.124Z,7.43
2023-02-28T03:42:20.968Z,7.07
2023-02-28T03:44:59.632Z,6.50
2023-02-28T03:47:29.611Z,5.57
2023-02-28T03:50:02.482Z,9.20
2023-02-28T03:52:33.621Z,6.33
2023-02-28T03:55:07.374Z,6.80
2023-02-28T03:57:34.436Z,6.00
2023-02-28T04:00:06.801Z,6.83
2023-02-28T04:02:34.420Z,5.97
2023-02-28T04:05:02.163Z,8.60
2023-02-28T04:07:32.362Z,7.97
2023-02-28T04:09:59.644Z,8.87
2023-02-28T04:12:26.962Z,9.03
2023-02-28T04:14:54.067Z,6.53
2023-02-28T04:17:21.139Z,7.43
2023-02-28T04:19:48.234Z,8.20
2023-02-28T04:22:15.410Z,7.37
2023-02-28T04:24:42.535Z,7.90
2023-02-28T04:27:10.634Z,7.00
2023-02-28T04:29:37.784Z,7.27
2023-02-28T04:32:05.126Z,7.50
2023-02-28T04:34:33.451Z,7.63
2023-02-28T04:37:16.528Z,6.93
2023-02-28T04:39:44.109Z,6.67
2023-02-28T04:42:11.592Z,5.83
2023-02-28T04:44:38.704Z,6.33
2023-02-28T04:47:06.097Z,8.23
2023-02-28T04:49:33.201Z,6.00
2023-02-28T04:52:00.244Z,8.00
2023-02-28T04:54:27.346Z,6.50
2023-02-28T04:56:55.683Z,7.53
2023-02-28T04:59:22.733Z,6.23
2023-02-28T05:01:50.784Z,8.27
2023-02-28T05:04:18.046Z,5.97
2023-02-28T05:06:45.465Z,8.77
2023-02-28T05:09:12.682Z,8.37
2023-02-28T05:11:40.487Z,6.80
2023-02-28T05:14:08.956Z,7.37
2023-02-28T05:16:36.043Z,7.53
2023-02-28T05:19:03.212Z,8.70
2023-02-28T05:21:37.151Z,9.77
2023-02-28T05:24:08.884Z,7.17
2023-02-28T05:26:36.611Z,8.13
2023-02-28T05:29:03.774Z,8.23
2023-02-28T05:31:31.338Z,7.40
2023-02-28T05:33:58.693Z,8.93
2023-02-28T05:36:25.794Z,7.97
2023-02-28T05:38:53.447Z,8.70
2023-02-28T05:41:20.893Z,9.33
2023-02-28T05:43:48.266Z,8.53
2023-02-28T05:46:15.376Z,8.73
2023-02-28T05:48:43.480Z,9.77
2023-02-28T05:51:10.891Z,11.53
2023-02-28T05:53:38.073Z,9.77
2023-02-28T05:56:05.360Z,10.97
2023-02-28T05:58:32.547Z,7.93
2023-02-28T06:01:00.557Z,10.73
2023-02-28T06:03:28.194Z,6.97
2023-02-28T06:05:55.908Z,9.37
2023-02-28T06:08:22.974Z,9.80
2023-02-28T06:10:50.072Z,8.37
2023-02-28T06:13:17.141Z,12.30
2023-02-28T06:15:44.281Z,11.37
2023-02-28T06:18:11.349Z,8.77
2023-02-28T06:20:38.425Z,8.70
2023-02-28T06:23:05.522Z,8.10
2023-02-28T06:25:32.792Z,10.43
2023-02-28T06:27:59.920Z,11.00
2023-02-28T06:30:29.074Z,11.83
2023-02-28T06:32:56.271Z,10.20
2023-02-28T06:35:23.745Z,10.23
2023-02-28T06:37:50.924Z,8.33
2023-02-28T06:40:18.101Z,9.47
2023-02-28T06:42:45.210Z,8.47
2023-02-28T06:45:13.121Z,8.87
2023-02-28T06:47:41.274Z,12.00
2023-02-28T06:50:09.628Z,10.87
2023-02-28T06:52:39.723Z,9.40
2023-02-28T06:55:07.547Z,11.43
2023-02-28T06:57:35.651Z,11.53
2023-02-28T07:00:05.370Z,9.03
2023-02-28T07:02:32.766Z,9.37
2023-02-28T07:04:59.878Z,9.07
2023-02-28T07:07:26.983Z,9.63
2023-02-28T07:09:54.045Z,7.80
2023-02-28T07:12:21.308Z,8.47
2023-02-28T07:14:48.402Z,7.17
2023-02-28T07:17:15.521Z,10.70
2023-02-28T07:19:42.608Z,13.57
2023-02-28T07:22:09.810Z,9.80
2023-02-28T07:24:36.877Z,12.50
2023-02-28T07:27:04.079Z,9.77
2023-02-28T07:29:31.276Z,8.83
2023-02-28T07:31:58.832Z,11.13
2023-02-28T07:34:26.872Z,12.33
2023-02-28T07:36:54.813Z,11.57
2023-02-28T07:39:22.284Z,10.17
2023-02-28T07:41:49.393Z,10.27
2023-02-28T07:44:16.819Z,9.70
2023-02-28T07:46:43.957Z,9.80
2023-02-28T07:49:11.056Z,8.67
2023-02-28T07:51:38.178Z,11.40
2023-02-28T07:54:05.410Z,9.70
2023-02-28T07:56:32.737Z,13.00
2023-02-28T07:59:00.061Z,10.27
2023-02-28T08:01:27.227Z,9.17
2023-02-28T08:03:55.827Z,10.77
2023-02-28T08:06:24.008Z,14.27
2023-02-28T08:08:51.309Z,10.53
2023-02-28T08:11:18.788Z,11.17
2023-02-28T08:13:46.529Z,12.07
2023-02-28T08:16:22.781Z,11.90
2023-02-28T08:18:51.009Z,14.90
2023-02-28T08:21:18.216Z,10.10
2023-02-28T08:23:45.274Z,12.60
2023-02-28T08:26:12.367Z,14.70
2023-02-28T08:28:39.452Z,10.30
2023-02-28T08:31:16.365Z,10.80
2023-02-28T08:33:45.384Z,13.60
2023-02-28T08:36:13.156Z,11.07
2023-02-28T08:38:40.564Z,11.70
2023-02-28T08:41:09.806Z,12.17
2023-02-28T08:43:37.307Z,11.97
2023-02-28T08:46:04.954Z,10.20
2023-02-28T08:48:33.165Z,10.20
2023-02-28T08:51:09.100Z,10.83
2023-02-28T08:53:36.774Z,11.37
2023-02-28T08:56:05.552Z,13.57
2023-02-28T08:58:32.718Z,12.13
2023-02-28T09:00:59.847Z,8.27
2023-02-28T09:03:27.968Z,12.17
2023-02-28T09:05:58.668Z,9.23
2023-02-28T09:08:28.501Z,10.60
2023-02-28T09:10:58.077Z,10.37
2023-02-28T09:13:25.828Z,13.30
2023-02-28T09:15:53.460Z,9.30
2023-02-28T09:18:20.818Z,9.27
2023-02-28T09:20:48.006Z,10.07
2023-02-28T09:23:15.148Z,9.53
2023-02-28T09:25:47.217Z,9.90
2023-02-28T09:28:16.641Z,11.07
2023-02-28T09:30:44.022Z,17.43
2023-02-28T09:33:11.145Z,7.73
2023-02-28T09:35:38.467Z,11.40
2023-02-28T09:38:06.004Z,9.03
2023-02-28T09:40:33.288Z,8.90
2023-02-28T09:43:01.402Z,8.07
2023-02-28T09:45:37.418Z,9.63
2023-02-28T09:48:06.528Z,9.87
2023-02-28T09:50:42.809Z,10.70
2023-02-28T09:53:17.007Z,7.67
2023-02-28T09:55:47.258Z,7.47
2023-02-28T09:58:37.793Z,10.13
2023-02-28T10:01:08.420Z,6.47
2023-02-28T10:03:44.801Z,9.27
2023-02-28T10:06:19.011Z,10.97
2023-02-28T10:08:53.999Z,7.27
2023-02-28T10:11:23.805Z,7.70
2023-02-28T10:14:03.518Z,9.93
2023-02-28T10:16:37.402Z,10.47
2023-02-28T10:19:13.144Z,8.33
2023-02-28T10:21:42.708Z,9.40
2023-02-28T10:24:21.767Z,8.23
2023-02-28T10:26:49.341Z,8.20
2023-02-28T10:29:17.164Z,7.27
2023-02-28T10:31:44.553Z,9.07
2023-02-28T10:34:13.666Z,7.63
2023-02-28T10:36:43.922Z,8.47
2023-02-28T10:39:29.600Z,11.10
2023-02-28T10:41:56.675Z,8.57
2023-02-28T10:44:25.243Z,9.13
2023-02-28T10:46:53.553Z,12.77
2023-02-28T10:49:30.450Z,9.17
2023-02-28T10:51:58.920Z,11.67
2023-02-28T10:54:31.792Z,12.13
2023-02-28T10:57:07.967Z,9.05
2023-02-28T10:59:35.020Z,9.80
2023-02-28T11:02:02.217Z,13.33
2023-02-28T11:04:41.749Z,13.00
2023-02-28T11:07:21.551Z,9.77
2023-02-28T11:09:51.650Z,10.97
2023-02-28T11:12:27.317Z,8.93
2023-02-28T11:14:56.850Z,11.00
2023-02-28T11:17:25.399Z,9.67
2023-02-28T11:19:53.674Z,9.93
2023-02-28T11:22:26.998Z,11.50
2023-02-28T11:24:55.290Z,8.37
2023-02-28T11:27:31.414Z,9.17
2023-02-28T11:30:01.476Z,11.97
2023-02-28T11:32:31.339Z,10.63
2023-02-28T11:35:23.269Z,10.53
2023-02-28T11:37:50.346Z,9.40
2023-02-28T11:40:18.975Z,8.93
2023-02-28T11:42:55.851Z,14.80
2023-02-28T11:45:26.158Z,7.57
2023-02-28T11:47:58.977Z,9.90
2023-02-28T11:50:44.771Z,9.13
2023-02-28T11:53:32.834Z,10.07
2023-02-28T11:56:03.708Z,9.17
2023-02-28T11:58:49.445Z,8.00
2023-02-28T12:01:28.064Z,10.90
2023-02-28T12:03:55.373Z,10.83
2023-02-28T12:06:44.997Z,8.70
2023-02-28T12:09:30.579Z,8.33
2023-02-28T12:12:00.586Z,8.47
2023-02-28T12:14:45.876Z,10.43
2023-02-28T12:17:21.754Z,11.00
2023-02-28T12:20:10.269Z,12.47
2023-02-28T12:22:45.140Z,9.07
2023-02-28T12:25:45.757Z,13.77
2023-02-28T12:28:14.162Z,8.87
2023-02-28T12:30:47.007Z,9.57
2023-02-28T12:33:15.943Z,9.83
2023-02-28T12:35:49.108Z,9.67
2023-02-28T12:38:20.311Z,12.30
2023-02-28T12:41:00.161Z,10.20
2023-02-28T12:43:32.563Z,10.10
2023-02-28T12:46:11.850Z,14.30
2023-02-28T12:48:44.956Z,13.00
2023-02-28T12:51:12.942Z,9.50
2023-02-28T12:54:06.219Z,10.27
2023-02-28T12:56:42.240Z,13.17
2023-02-28T12:59:09.397Z,10.27
2023-02-28T13:01:40.661Z,9.90
2023-02-28T13:04:26.609Z,11.50
2023-02-28T13:06:53.632Z,9.47
2023-02-28T13:09:21.241Z,12.33
2023-02-28T13:11:56.663Z,10.53
2023-02-28T13:14:26.692Z,10.90
2023-02-28T13:16:58.946Z,10.47
2023-02-28T13:19:28.127Z,10.00
2023-02-28T13:21:56.202Z,10.07
2023-02-28T13:24:41.881Z,10.27
2023-02-28T13:27:10.536Z,12.53
2023-02-28T13:29:42.964Z,11.17
2023-02-28T13:32:10.198Z,9.53
2023-02-28T13:34:38.544Z,12.13
2023-02-28T13:37:25.963Z,12.23
2023-02-28T13:39:54.820Z,12.33
2023-02-28T13:42:40.704Z,12.73
2023-02-28T13:45:07.729Z,15.40
2023-02-28T13:47:41.996Z,12.50
2023-02-28T13:50:29.437Z,12.40
2023-02-28T13:52:56.528Z,10.43
2023-02-28T13:55:30.528Z,12.30
2023-02-28T13:58:03.816Z,15.13
2023-02-28T14:00:36.775Z,13.20
2023-02-28T14:03:06.773Z,11.33
2023-02-28T14:05:35.289Z,13.50
2023-02-28T14:08:07.389Z,13.63
2023-02-28T14:10:36.914Z,11.67
2023-02-28T14:13:15.534Z,11.00
2023-02-28T14:15:43.075Z,12.07
2023-02-28T14:18:19.143Z,11.17
2023-02-28T14:20:47.568Z,10.83
2023-02-28T14:23:23.033Z,15.63
2023-02-28T14:25:56.670Z,14.23
2023-02-28T14:28:35.417Z,14.40
2023-02-28T14:31:08.747Z,12.50
2023-02-28T14:33:35.942Z,12.27
2023-02-28T14:36:08.785Z,13.90
2023-02-28T14:38:43.901Z,15.63
2023-02-28T14:41:22.148Z,11.63
2023-02-28T14:43:53.758Z,11.77
2023-02-28T14:46:21.598Z,12.40
2023-02-28T14:48:50.492Z,13.70
2023-02-28T14:51:22.302Z,16.53
2023-02-28T14:53:51.601Z,14.30
2023-02-28T14:56:36.678Z,10.50
2023-02-28T14:59:04.489Z,12.67
2023-02-28T15:01:34.333Z,13.27
2023-02-28T15:04:03.806Z,12.10
2023-02-28T15:06:30.984Z,16.07
2023-02-28T15:09:11.507Z,12.13
2023-02-28T15:11:39.230Z,11.30
2023-02-28T15:14:06.451Z,11.90
2023-02-28T15:16:36.794Z,11.97
2023-02-28T15:19:07.052Z,10.57
2023-02-28T15:21:36.026Z,16.13
2023-02-28T15:24:05.842Z,10.87
2023-02-28T15:26:34.967Z,12.27
2023-02-28T15:29:05.377Z,14.03
2023-02-28T15:31:53.882Z,10.87
2023-02-28T15:34:26.493Z,13.93
2023-02-28T15:36:55.681Z,11.27
2023-02-28T15:39:27.995Z,16.00
2023-02-28T15:42:11.946Z,13.50
2023-02-28T15:44:39.052Z,14.50
2023-02-28T15:47:07.492Z,12.70
2023-02-28T15:49:46.325Z,14.57
2023-02-28T15:52:21.632Z,14.33
2023-02-28T15:54:49.186Z,13.67
2023-02-28T15:57:22.155Z,11.63
2023-02-28T16:00:00.666Z,12.77
2023-02-28T16:02:35.420Z,12.00
2023-02-28T16:05:11.753Z,12.73
2023-02-28T16:07:39.857Z,14.23
2023-02-28T16:10:07.527Z,11.33
2023-02-28T16:12:36.156Z,11.00
2023-02-28T16:15:07.244Z,13.23
2023-02-28T16:17:35.732Z,14.93
2023-02-28T16:20:04.108Z,11.83
2023-02-28T16:22:31.156Z,13.97
2023-02-28T16:24:58.257Z,16.17
2023-02-28T16:27:36.987Z,16.67
2023-02-28T16:30:05.222Z,22.20
2023-02-28T16:32:33.654Z,17.03
2023-02-28T16:35:00.769Z,14.57
2023-02-28T16:37:28.435Z,11.97
2023-02-28T16:39:55.553Z,17.90
2023-02-28T16:42:25.839Z,13.17
2023-02-28T16:44:53.399Z,14.90
2023-02-28T16:47:21.045Z,19.27
2023-02-28T16:49:48.616Z,16.57
2023-02-28T16:52:16.130Z,14.10
2023-02-28T16:54:43.417Z,12.60
2023-02-28T16:57:28.601Z,15.40
2023-02-28T16:59:55.677Z,11.93
2023-02-28T17:02:22.931Z,11.03
2023-02-28T17:04:50.138Z,11.27
2023-02-28T17:07:17.883Z,13.50
2023-02-28T17:09:46.552Z,14.70
2023-02-28T17:12:13.828Z,14.53
2023-02-28T17:14:40.959Z,16.97
2023-02-28T17:17:08.211Z,12.60
2023-02-28T17:19:37.011Z,13.10
2023-02-28T17:22:04.117Z,12.77
2023-02-28T17:24:31.756Z,11.23
2023-02-28T17:26:59.229Z,14.63
2023-02-28T17:29:26.400Z,13.33
2023-02-28T17:31:53.612Z,13.30
2023-02-28T17:34:21.109Z,13.13
2023-02-28T17:36:48.891Z,13.60
2023-02-28T17:39:16.340Z,14.33
2023-02-28T17:41:43.587Z,15.00
2023-02-28T17:44:10.948Z,11.83
2023-02-28T17:46:38.530Z,11.97
2023-02-28T17:49:06.066Z,12.80
2023-02-28T17:51:33.143Z,11.03
2023-02-28T17:54:00.819Z,12.97
2023-02-28T17:56:29.255Z,11.23
2023-02-28T17:58:57.440Z,11.53
2023-02-28T18:01:28.102Z,13.53
2023-02-28T18:03:55.953Z,9.80
2023-02-28T18:06:28.399Z,14.07
2023-02-28T18:08:56.006Z,11.27
2023-02-28T18:11:24.243Z,14.00
2023-02-28T18:13:53.126Z,10.20
2023-02-28T18:16:21.821Z,13.43
2023-02-28T18:18:49.135Z,10.97
2023-02-28T18:21:16.937Z,10.60
2023-02-28T18:23:48.582Z,10.10
2023-02-28T18:26:16.400Z,11.27
2023-02-28T18:28:44.539Z,9.50
2023-02-28T18:31:13.496Z,11.70
2023-02-28T18:33:40.710Z,14.40
2023-02-28T18:36:07.957Z,10.67
2023-02-28T18:38:35.173Z,12.47
2023-02-28T18:41:04.897Z,23.73
2023-02-28T18:43:32.678Z,22.90
2023-02-28T18:46:03.968Z,25.47
2023-02-28T18:48:31.019Z,15.13
2023-02-28T18:50:58.098Z,13.37
2023-02-28T18:53:25.157Z,14.70
2023-02-28T18:55:52.227Z,11.90
2023-02-28T18:58:19.327Z,14.93
2023-02-28T19:00:48.114Z,17.13
2023-02-28T19:03:15.207Z,21.77
2023-02-28T19:05:42.328Z,14.60
2023-02-28T19:08:10.225Z,14.50
2023-02-28T19:10:39.749Z,22.57
2023-02-28T19:13:07.184Z,25.70
2023-02-28T19:15:34.281Z,51.20
2023-02-28T19:18:01.505Z,35.60
2023-02-28T19:20:28.565Z,29.97
2023-02-28T19:22:55.614Z,16.50
2023-02-28T19:25:24.080Z,12.30
2023-02-28T19:27:54.419Z,13.33
2023-02-28T19:30:21.890Z,12.57
2023-02-28T19:32:49.551Z,12.37
2023-02-28T19:35:16.837Z,10.57
2023-02-28T19:37:43.924Z,13.27
2023-02-28T19:40:13.667Z,12.40
2023-02-28T19:42:40.817Z,11.33
2023-02-28T19:45:10.012Z,11.43
2023-02-28T19:47:38.278Z,15.40
2023-02-28T19:50:06.402Z,16.30
2023-02-28T19:52:34.326Z,9.07
2023-02-28T19:55:01.422Z,12.20
2023-02-28T19:57:28.472Z,10.13
2023-02-28T19:59:55.552Z,13.57
2023-02-28T20:02:24.041Z,11.80
2023-02-28T20:04:51.395Z,13.93
2023-02-28T20:07:20.265Z,10.60
2023-02-28T20:09:48.012Z,10.60
2023-02-28T20:12:24.151Z,12.63
2023-02-28T20:14:51.920Z,10.80
2023-02-28T20:17:19.037Z,12.90
2023-02-28T20:19:46.371Z,14.83
2023-02-28T20:22:13.531Z,11.57
2023-02-28T20:24:40.613Z,17.63
2023-02-28T20:27:07.700Z,14.13
2023-02-28T20:29:35.489Z,13.90
2023-02-28T20:32:02.716Z,12.40
2023-02-28T20:34:29.847Z,12.53
2023-02-28T20:36:59.139Z,18.27
2023-02-28T20:39:26.439Z,15.23
2023-02-28T20:41:56.361Z,13.10
2023-02-28T20:44:23.501Z,17.97
2023-02-28T20:46:51.629Z,17.10
2023-02-28T20:49:19.062Z,20.83
2023-02-28T20:51:46.177Z,21.30
2023-02-28T20:54:13.890Z,21.10
2023-02-28T20:56:41.139Z,17.60
2023-02-28T20:59:10.125Z,17.27
2023-02-28T21:01:37.367Z,24.53
2023-02-28T21:04:08.606Z,13.97
2023-02-28T21:06:38.583Z,11.70
2023-02-28T21:09:08.795Z,18.03
2023-02-28T21:11:37.441Z,14.20
2023-02-28T21:14:06.463Z,14.47
2023-02-28T21:16:35.785Z,14.90
2023-02-28T21:19:04.557Z,15.43
2023-02-28T21:21:32.760Z,16.90
2023-02-28T21:23:59.803Z,15.63
2023-02-28T21:26:26.910Z,14.50
2023-02-28T21:28:58.314Z,14.50
2023-02-28T21:31:26.178Z,13.77
2023-02-28T21:33:54.666Z,14.40
2023-02-28T21:36:23.073Z,16.60
2023-02-28T21:38:51.041Z,17.47
2023-02-28T21:41:20.108Z,16.90
2023-02-28T21:43:47.781Z,15.47
2023-02-28T21:46:16.226Z,14.53
2023-02-28T21:48:43.601Z,13.13
2023-02-28T21:51:14.910Z,15.80
2023-02-28T21:53:42.381Z,17.43
2023-02-28T21:56:12.560Z,19.37
2023-02-28T21:58:39.712Z,18.57
2023-02-28T22:01:07.716Z,14.67
2023-02-28T22:03:34.865Z,13.73
2023-02-28T22:06:02.092Z,10.80
2023-02-28T22:08:29.141Z,13.67
2023-02-28T22:10:56.231Z,14.00
2023-02-28T22:13:23.257Z,12.07
2023-02-28T22:15:50.380Z,10.70
2023-02-28T22:18:17.426Z,13.60
2023-02-28T22:20:44.490Z,11.17
2023-02-28T22:23:11.519Z,14.83
2023-02-28T22:25:38.763Z,12.53
2023-02-28T22:28:05.802Z,16.97
2023-02-28T22:30:32.873Z,20.83
2023-02-28T22:32:59.972Z,15.27
2023-02-28T22:35:27.081Z,17.30
2023-02-28T22:37:54.147Z,19.30
2023-02-28T22:40:21.301Z,23.80
2023-02-28T22:42:48.408Z,17.27
2023-02-28T22:45:15.497Z,21.97
2023-02-28T22:47:42.587Z,24.23
2023-02-28T22:50:09.986Z,25.47
2023-02-28T22:52:39.711Z,20.00
2023-02-28T22:55:07.098Z,29.17
2023-02-28T22:57:34.185Z,19.50
2023-02-28T23:00:01.320Z,21.67
2023-02-28T23:02:28.972Z,23.53
2023-02-28T23:04:56.070Z,26.40
2023-02-28T23:07:24.024Z,19.80
2023-02-28T23:09:51.204Z,19.97
2023-02-28T23:12:18.595Z,19.67
2023-02-28T23:14:45.920Z,16.97
2023-02-28T23:17:12.996Z,26.40
2023-02-28T23:19:40.112Z,21.13
2023-02-28T23:22:07.146Z,26.77
2023-02-28T23:24:34.878Z,19.47
2023-02-28T23:27:03.618Z,19.27
2023-02-28T23:29:31.667Z,20.57
2023-02-28T23:31:59.055Z,19.60
2023-02-28T23:34:27.953Z,18.90
2023-02-28T23:36:55.587Z,17.07
2023-02-28T23:39:22.774Z,19.80
2023-02-28T23:41:49.886Z,20.47
2023-02-28T23:44:17.215Z,18.83
2023-02-28T23:46:45.807Z,22.97
2023-02-28T23:49:12.926Z,23.83
2023-02-28T23:51:40.284Z,22.20
2023-02-28T23:54:07.959Z,21.57
2023-02-28T23:56:35.039Z,25.67
2023-02-28T23:59:02.141Z,28.73
